VTK503 UHPP-ROAH
Flight info
| Callsign | VTK503 |
|---|---|
| Flight time | N/A |
| Altitude | 36000 |
| Route | SAMIK4M SAMIK T577 UB G583 BISIV/N0444F360 Y116 MVE V8 LUBEK Y116 CHE/N0446F380 Y12 HWE Y14 GOLDO Y381 KMC Y382 WAKIT Y282 POPPY V53 SUC B597 SEPIA Y26 SWANO Y75 ONC A582 LEXUS Y45 OKUMA |
| Aircraft | A319/M-SDE3FGHIRWY/LB1 |
Departure
| Time | 2026-04-17 00:11 |
|---|---|
| Airport | Yelizovo Airport (UHPP) |
Arrival
| Time | N/A |
|---|---|
| Airport | Naha International Airport (ROAH) |
| Time | Latitude | Longitude | Altitude | Speed | Heading |
|---|---|---|---|---|---|
| 2026-04-16 23:56 | 53.16845 | 158.42977 | 137 ft | 0 kts | 240° |
| 2026-04-17 00:06 | 53.16841 | 158.42967 | 137 ft | 3 kts | 240° |
| 2026-04-17 00:06 | 53.16836 | 158.42903 | 137 ft | 8 kts | 288° |
| 2026-04-17 00:07 | 53.16895 | 158.42823 | 137 ft | 14 kts | 329° |
| 2026-04-17 00:07 | 53.17004 | 158.42788 | 137 ft | 19 kts | 23° |
| 2026-04-17 00:07 | 53.17093 | 158.42989 | 137 ft | 24 kts | 60° |
| 2026-04-17 00:07 | 53.17186 | 158.43258 | 137 ft | 29 kts | 60° |
| 2026-04-17 00:08 | 53.17297 | 158.43576 | 137 ft | 34 kts | 59° |
| 2026-04-17 00:08 | 53.17408 | 158.43894 | 137 ft | 28 kts | 60° |
| 2026-04-17 00:08 | 53.17493 | 158.44184 | 137 ft | 28 kts | 68° |
| 2026-04-17 00:08 | 53.17569 | 158.44472 | 138 ft | 22 kts | 68° |
| 2026-04-17 00:09 | 53.17573 | 158.44627 | 138 ft | 8 kts | 144° |
| 2026-04-17 00:09 | 53.17552 | 158.44641 | 138 ft | 0 kts | 159° |
| 2026-04-17 00:09 | 53.17550 | 158.44642 | 138 ft | 1 kts | 159° |
| 2026-04-17 00:10 | 53.17544 | 158.44646 | 138 ft | 2 kts | 159° |
| 2026-04-17 00:10 | 53.17423 | 158.44723 | 139 ft | 52 kts | 159° |
| 2026-04-17 00:10 | 53.16867 | 158.45108 | 137 ft | 119 kts | 156° |
| 2026-04-17 00:10 | 53.15939 | 158.45766 | 168 ft | 166 kts | 158° |
| 2026-04-17 00:11 | 53.14901 | 158.46501 | 856 ft | 156 kts | 157° |
| 2026-04-17 00:11 | 53.13909 | 158.47177 | 1524 ft | 154 kts | 158° |
| 2026-04-17 00:11 | 53.12895 | 158.47881 | 2078 ft | 166 kts | 157° |
| 2026-04-17 00:11 | 53.11759 | 158.48670 | 2419 ft | 188 kts | 157° |
| 2026-04-17 00:12 | 53.10474 | 158.49562 | 2729 ft | 213 kts | 157° |
| 2026-04-17 00:12 | 53.09029 | 158.50561 | 3154 ft | 237 kts | 157° |
| 2026-04-17 00:12 | 53.07441 | 158.51655 | 3773 ft | 254 kts | 157° |
| 2026-04-17 00:12 | 53.05787 | 158.52788 | 4697 ft | 259 kts | 157° |
| 2026-04-17 00:13 | 53.04107 | 158.53933 | 5643 ft | 263 kts | 156° |
| 2026-04-17 00:13 | 53.02405 | 158.55096 | 6592 ft | 266 kts | 156° |
| 2026-04-17 00:13 | 53.00687 | 158.56269 | 7490 ft | 269 kts | 157° |
| 2026-04-17 00:13 | 52.98846 | 158.56914 | 8342 ft | 276 kts | 180° |
| 2026-04-17 00:14 | 52.96976 | 158.56155 | 9216 ft | 282 kts | 206° |
| 2026-04-17 00:14 | 52.95449 | 158.54094 | 10070 ft | 288 kts | 232° |
| 2026-04-17 00:14 | 52.94581 | 158.51099 | 10872 ft | 292 kts | 258° |
| 2026-04-17 00:14 | 52.94560 | 158.47737 | 11615 ft | 298 kts | 279° |
| 2026-04-17 00:15 | 52.94930 | 158.44216 | 11877 ft | 322 kts | 281° |
| 2026-04-17 00:15 | 52.95353 | 158.40494 | 12408 ft | 334 kts | 281° |
| 2026-04-17 00:15 | 52.95792 | 158.36685 | 13179 ft | 338 kts | 281° |
| 2026-04-17 00:15 | 52.96232 | 158.32829 | 13970 ft | 342 kts | 281° |
| 2026-04-17 00:16 | 52.96673 | 158.28890 | 14690 ft | 344 kts | 281° |
| 2026-04-17 00:16 | 52.97103 | 158.24961 | 15400 ft | 347 kts | 281° |
| 2026-04-17 00:16 | 52.97530 | 158.20999 | 16107 ft | 350 kts | 281° |
| 2026-04-17 00:16 | 52.97957 | 158.17001 | 16802 ft | 354 kts | 281° |
| 2026-04-17 00:17 | 52.98388 | 158.12962 | 17484 ft | 357 kts | 281° |
| 2026-04-17 00:17 | 52.98825 | 158.08881 | 18149 ft | 361 kts | 282° |
| 2026-04-17 00:17 | 52.99270 | 158.04760 | 18745 ft | 365 kts | 282° |
| 2026-04-17 00:17 | 52.99719 | 158.00604 | 19328 ft | 368 kts | 282° |
| 2026-04-17 00:18 | 53.00170 | 157.96407 | 19919 ft | 370 kts | 283° |
| 2026-04-17 00:18 | 53.00618 | 157.92184 | 20505 ft | 373 kts | 283° |
| 2026-04-17 00:18 | 53.01068 | 157.87926 | 21084 ft | 376 kts | 283° |
| 2026-04-17 00:18 | 53.01518 | 157.83632 | 21670 ft | 379 kts | 283° |
| 2026-04-17 00:19 | 53.01971 | 157.79302 | 22251 ft | 382 kts | 283° |
| 2026-04-17 00:19 | 53.02423 | 157.74949 | 22840 ft | 384 kts | 284° |
| 2026-04-17 00:19 | 53.02878 | 157.70558 | 23422 ft | 387 kts | 284° |
| 2026-04-17 00:19 | 53.03334 | 157.66136 | 23901 ft | 390 kts | 283° |
| 2026-04-17 00:20 | 53.03533 | 157.61601 | 24354 ft | 398 kts | 273° |
| 2026-04-17 00:20 | 53.03257 | 157.56994 | 24790 ft | 405 kts | 263° |
| 2026-04-17 00:20 | 53.02562 | 157.52432 | 25229 ft | 409 kts | 258° |
| 2026-04-17 00:20 | 53.01814 | 157.47864 | 25665 ft | 411 kts | 258° |
| 2026-04-17 00:21 | 53.01069 | 157.43262 | 26091 ft | 413 kts | 258° |
| 2026-04-17 00:21 | 53.00325 | 157.38645 | 26501 ft | 415 kts | 258° |
| 2026-04-17 00:21 | 52.99580 | 157.33998 | 26898 ft | 418 kts | 258° |
| 2026-04-17 00:21 | 52.98829 | 157.29323 | 27312 ft | 420 kts | 258° |
| 2026-04-17 00:22 | 52.97299 | 157.19918 | 28118 ft | 424 kts | 258° |
| 2026-04-17 00:22 | 52.96520 | 157.15180 | 28508 ft | 427 kts | 258° |
| 2026-04-17 00:22 | 52.95738 | 157.10423 | 28895 ft | 429 kts | 258° |
| 2026-04-17 00:23 | 52.94951 | 157.05644 | 29270 ft | 431 kts | 258° |
| 2026-04-17 00:23 | 52.94158 | 157.00835 | 29640 ft | 433 kts | 258° |
| 2026-04-17 00:23 | 52.93349 | 156.95950 | 30011 ft | 435 kts | 258° |
| 2026-04-17 00:23 | 52.92542 | 156.91098 | 30296 ft | 437 kts | 258° |
| 2026-04-17 00:24 | 52.91731 | 156.86233 | 30583 ft | 439 kts | 257° |
| 2026-04-17 00:24 | 52.90916 | 156.81350 | 30849 ft | 441 kts | 257° |
| 2026-04-17 00:24 | 52.90093 | 156.76441 | 31102 ft | 443 kts | 257° |
| 2026-04-17 00:24 | 52.89267 | 156.71519 | 31405 ft | 444 kts | 257° |
| 2026-04-17 00:25 | 52.88440 | 156.66609 | 31773 ft | 443 kts | 257° |
| 2026-04-17 00:25 | 52.87611 | 156.61706 | 32111 ft | 442 kts | 257° |
| 2026-04-17 00:25 | 52.86782 | 156.56801 | 32468 ft | 442 kts | 257° |
| 2026-04-17 00:25 | 52.85952 | 156.51911 | 32815 ft | 441 kts | 256° |
| 2026-04-17 00:26 | 52.85118 | 156.47024 | 33153 ft | 441 kts | 256° |
| 2026-04-17 00:26 | 52.84281 | 156.42146 | 33491 ft | 441 kts | 256° |
| 2026-04-17 00:26 | 52.83441 | 156.37276 | 33821 ft | 441 kts | 256° |
| 2026-04-17 00:26 | 52.82594 | 156.32405 | 34123 ft | 441 kts | 254° |
| 2026-04-17 00:27 | 52.81451 | 156.27692 | 34376 ft | 443 kts | 245° |
| 2026-04-17 00:27 | 52.79847 | 156.23341 | 34615 ft | 445 kts | 235° |
| 2026-04-17 00:27 | 52.77882 | 156.19374 | 34865 ft | 446 kts | 232° |
| 2026-04-17 00:27 | 52.75881 | 156.15466 | 35107 ft | 446 kts | 232° |
| 2026-04-17 00:28 | 52.73882 | 156.11557 | 35346 ft | 446 kts | 232° |
| 2026-04-17 00:28 | 52.71881 | 156.07645 | 35575 ft | 445 kts | 232° |
| 2026-04-17 00:28 | 52.69884 | 156.03739 | 35798 ft | 445 kts | 232° |
| 2026-04-17 00:28 | 52.67887 | 155.99845 | 35969 ft | 446 kts | 232° |
| 2026-04-17 00:29 | 52.63905 | 155.92117 | 36018 ft | 440 kts | 232° |
| 2026-04-17 00:29 | 52.59943 | 155.84452 | 36027 ft | 439 kts | 232° |
| 2026-04-17 00:30 | 52.55984 | 155.76826 | 36023 ft | 439 kts | 232° |
| 2026-04-17 00:30 | 52.52027 | 155.69206 | 36021 ft | 438 kts | 231° |
| 2026-04-17 00:31 | 52.48036 | 155.61551 | 36028 ft | 438 kts | 231° |
| 2026-04-17 00:31 | 52.44062 | 155.53967 | 36027 ft | 438 kts | 231° |
| 2026-04-17 00:32 | 52.40084 | 155.46390 | 36026 ft | 438 kts | 231° |
| 2026-04-17 00:32 | 52.36110 | 155.38822 | 36037 ft | 438 kts | 231° |
| 2026-04-17 00:33 | 52.32126 | 155.31275 | 36034 ft | 438 kts | 231° |
| 2026-04-17 00:33 | 52.28136 | 155.23750 | 36033 ft | 438 kts | 231° |
| 2026-04-17 00:34 | 52.24146 | 155.16245 | 36035 ft | 438 kts | 231° |
| 2026-04-17 00:34 | 52.20153 | 155.08752 | 36034 ft | 437 kts | 231° |
| 2026-04-17 00:35 | 52.16159 | 155.01278 | 36037 ft | 437 kts | 231° |
| 2026-04-17 00:35 | 52.12842 | 154.95082 | 36037 ft | 437 kts | 231° |
| 2026-04-17 00:36 | 52.08843 | 154.87645 | 36035 ft | 436 kts | 231° |
| 2026-04-17 00:36 | 52.04816 | 154.80187 | 36031 ft | 436 kts | 231° |
| 2026-04-17 00:37 | 52.00819 | 154.72779 | 36033 ft | 436 kts | 231° |
| 2026-04-17 00:37 | 51.96819 | 154.65397 | 36027 ft | 435 kts | 231° |
| 2026-04-17 00:38 | 51.92813 | 154.58042 | 36035 ft | 435 kts | 231° |
| 2026-04-17 00:38 | 51.88806 | 154.50706 | 36033 ft | 435 kts | 231° |
| 2026-04-17 00:39 | 51.84799 | 154.43371 | 36032 ft | 435 kts | 231° |
| 2026-04-17 00:39 | 51.80789 | 154.36059 | 36028 ft | 434 kts | 231° |
| 2026-04-17 00:40 | 51.76782 | 154.28763 | 36026 ft | 434 kts | 231° |
| 2026-04-17 00:40 | 51.72774 | 154.21480 | 36027 ft | 434 kts | 231° |
| 2026-04-17 00:41 | 51.68754 | 154.14230 | 36030 ft | 434 kts | 231° |
| 2026-04-17 00:41 | 51.64733 | 154.06986 | 36031 ft | 433 kts | 231° |
| 2026-04-17 00:42 | 51.60706 | 153.99761 | 36032 ft | 433 kts | 231° |
| 2026-04-17 00:42 | 51.56683 | 153.92560 | 36037 ft | 433 kts | 231° |
| 2026-04-17 00:43 | 51.52655 | 153.85366 | 36038 ft | 433 kts | 231° |
| 2026-04-17 00:43 | 51.48628 | 153.78184 | 36037 ft | 433 kts | 231° |
| 2026-04-17 00:44 | 51.44567 | 153.70972 | 36032 ft | 432 kts | 231° |
| 2026-04-17 00:44 | 51.40532 | 153.63833 | 36036 ft | 432 kts | 231° |
| 2026-04-17 00:45 | 51.36497 | 153.56703 | 36042 ft | 432 kts | 231° |
| 2026-04-17 00:45 | 51.32457 | 153.49586 | 36038 ft | 432 kts | 231° |
| 2026-04-17 00:46 | 51.28415 | 153.42484 | 36039 ft | 432 kts | 231° |
| 2026-04-17 00:46 | 51.24371 | 153.35406 | 36040 ft | 431 kts | 231° |
| 2026-04-17 00:47 | 51.20323 | 153.28337 | 36043 ft | 431 kts | 231° |
| 2026-04-17 00:47 | 51.16281 | 153.21294 | 36043 ft | 431 kts | 231° |
| 2026-04-17 00:48 | 51.12232 | 153.14254 | 36045 ft | 430 kts | 231° |
| 2026-04-17 00:48 | 51.08184 | 153.07242 | 36049 ft | 430 kts | 231° |
| 2026-04-17 00:49 | 51.04136 | 153.00238 | 36053 ft | 430 kts | 231° |
| 2026-04-17 00:49 | 51.00087 | 152.93265 | 36053 ft | 429 kts | 231° |
| 2026-04-17 00:50 | 50.96038 | 152.86304 | 36057 ft | 429 kts | 230° |
| 2026-04-17 00:50 | 50.91985 | 152.79374 | 36057 ft | 429 kts | 230° |
| 2026-04-17 00:51 | 50.87929 | 152.72452 | 36061 ft | 428 kts | 231° |
| 2026-04-17 00:51 | 50.83876 | 152.65553 | 36063 ft | 428 kts | 231° |
| 2026-04-17 00:52 | 50.79820 | 152.58668 | 36064 ft | 427 kts | 231° |
| 2026-04-17 00:52 | 50.75743 | 152.51758 | 36067 ft | 427 kts | 230° |
| 2026-04-17 00:53 | 50.71680 | 152.44903 | 36069 ft | 427 kts | 231° |
| 2026-04-17 00:53 | 50.67622 | 152.38065 | 36071 ft | 427 kts | 231° |
| 2026-04-17 00:54 | 50.63568 | 152.31235 | 36075 ft | 427 kts | 231° |
| 2026-04-17 00:54 | 50.59511 | 152.24424 | 36076 ft | 426 kts | 231° |
| 2026-04-17 00:55 | 50.55443 | 152.17633 | 36074 ft | 426 kts | 231° |
| 2026-04-17 00:55 | 50.51375 | 152.10849 | 36079 ft | 426 kts | 231° |
| 2026-04-17 00:56 | 50.47305 | 152.04084 | 36079 ft | 426 kts | 231° |
| 2026-04-17 00:56 | 50.43221 | 151.97340 | 36081 ft | 426 kts | 231° |
| 2026-04-17 00:57 | 50.39146 | 151.90590 | 36083 ft | 426 kts | 231° |
| 2026-04-17 00:57 | 50.35070 | 151.83862 | 36083 ft | 426 kts | 231° |
| 2026-04-17 00:58 | 50.30988 | 151.77154 | 36087 ft | 426 kts | 231° |
| 2026-04-17 00:58 | 50.26898 | 151.70456 | 36090 ft | 426 kts | 231° |
| 2026-04-17 00:59 | 50.22806 | 151.63772 | 36089 ft | 425 kts | 231° |
| 2026-04-17 00:59 | 50.18722 | 151.57092 | 36092 ft | 425 kts | 231° |
| 2026-04-17 01:00 | 50.14604 | 151.50384 | 36091 ft | 425 kts | 231° |
| 2026-04-17 01:00 | 50.10502 | 151.43752 | 36088 ft | 425 kts | 231° |
| 2026-04-17 01:01 | 50.06403 | 151.37115 | 36094 ft | 425 kts | 231° |
| 2026-04-17 01:01 | 50.02310 | 151.30498 | 36099 ft | 425 kts | 231° |
| 2026-04-17 01:02 | 49.98211 | 151.23887 | 36106 ft | 424 kts | 231° |
| 2026-04-17 01:02 | 49.94109 | 151.17298 | 36109 ft | 424 kts | 231° |
| 2026-04-17 01:03 | 49.90003 | 151.10728 | 36106 ft | 424 kts | 230° |
| 2026-04-17 01:03 | 49.85890 | 151.04173 | 36105 ft | 424 kts | 230° |
| 2026-04-17 01:04 | 49.81782 | 150.97630 | 36108 ft | 424 kts | 230° |
| 2026-04-17 01:04 | 49.77671 | 150.91096 | 36108 ft | 423 kts | 230° |
| 2026-04-17 01:05 | 49.73561 | 150.84577 | 36107 ft | 423 kts | 230° |
| 2026-04-17 01:05 | 49.69444 | 150.78065 | 36109 ft | 423 kts | 230° |
| 2026-04-17 01:06 | 49.65330 | 150.71567 | 36111 ft | 423 kts | 230° |
| 2026-04-17 01:06 | 49.61211 | 150.65089 | 36112 ft | 423 kts | 230° |
| 2026-04-17 01:07 | 49.57085 | 150.58623 | 36105 ft | 423 kts | 230° |
| 2026-04-17 01:07 | 49.52954 | 150.52166 | 36111 ft | 423 kts | 230° |
| 2026-04-17 01:08 | 49.49495 | 150.46770 | 36108 ft | 423 kts | 230° |
| 2026-04-17 01:08 | 49.45362 | 150.40329 | 36107 ft | 423 kts | 230° |
| 2026-04-17 01:09 | 49.41224 | 150.33907 | 36103 ft | 423 kts | 230° |
| 2026-04-17 01:09 | 49.37081 | 150.27497 | 36101 ft | 423 kts | 230° |
| 2026-04-17 01:10 | 49.32941 | 150.21097 | 36104 ft | 423 kts | 231° |
| 2026-04-17 01:10 | 49.28796 | 150.14698 | 36105 ft | 423 kts | 231° |
| 2026-04-17 01:11 | 49.24647 | 150.08319 | 36107 ft | 423 kts | 231° |
| 2026-04-17 01:11 | 49.20499 | 150.01950 | 36107 ft | 423 kts | 231° |
| 2026-04-17 01:12 | 49.16345 | 149.95592 | 36110 ft | 422 kts | 231° |
| 2026-04-17 01:12 | 49.12159 | 149.89206 | 36118 ft | 422 kts | 231° |
| 2026-04-17 01:13 | 49.08001 | 149.82876 | 36118 ft | 422 kts | 231° |
| 2026-04-17 01:13 | 49.03842 | 149.76560 | 36112 ft | 422 kts | 231° |
| 2026-04-17 01:14 | 48.99680 | 149.70253 | 36111 ft | 422 kts | 231° |
| 2026-04-17 01:14 | 48.95519 | 149.63957 | 36109 ft | 422 kts | 231° |
| 2026-04-17 01:15 | 48.91356 | 149.57686 | 36108 ft | 421 kts | 231° |
| 2026-04-17 01:15 | 48.87184 | 149.51427 | 36109 ft | 421 kts | 231° |
| 2026-04-17 01:16 | 48.83016 | 149.45187 | 36107 ft | 421 kts | 231° |
| 2026-04-17 01:16 | 48.78858 | 149.38955 | 36109 ft | 420 kts | 231° |
| 2026-04-17 01:17 | 48.74699 | 149.32727 | 36106 ft | 420 kts | 231° |
| 2026-04-17 01:17 | 48.70537 | 149.26526 | 36106 ft | 420 kts | 231° |
| 2026-04-17 01:18 | 48.66370 | 149.20344 | 36107 ft | 419 kts | 231° |
| 2026-04-17 01:18 | 48.62212 | 149.14176 | 36100 ft | 419 kts | 231° |
| 2026-04-17 01:19 | 48.58052 | 149.08022 | 36104 ft | 418 kts | 231° |
| 2026-04-17 01:19 | 48.53890 | 149.01894 | 36103 ft | 418 kts | 231° |
| 2026-04-17 01:20 | 48.49726 | 148.95774 | 36102 ft | 417 kts | 231° |
| 2026-04-17 01:20 | 48.45545 | 148.89625 | 36100 ft | 417 kts | 231° |
| 2026-04-17 01:21 | 48.41394 | 148.83537 | 36097 ft | 416 kts | 231° |
| 2026-04-17 01:21 | 48.37241 | 148.77477 | 36096 ft | 416 kts | 231° |
| 2026-04-17 01:22 | 48.33081 | 148.71426 | 36096 ft | 415 kts | 231° |
| 2026-04-17 01:22 | 48.28926 | 148.65400 | 36095 ft | 415 kts | 232° |
| 2026-04-17 01:23 | 48.24777 | 148.59383 | 36094 ft | 414 kts | 232° |
| 2026-04-17 01:23 | 48.20634 | 148.53388 | 36094 ft | 414 kts | 232° |
| 2026-04-17 01:24 | 48.16491 | 148.47406 | 36089 ft | 413 kts | 232° |
| 2026-04-17 01:24 | 48.12352 | 148.41440 | 36087 ft | 413 kts | 232° |
| 2026-04-17 01:25 | 48.08210 | 148.35491 | 36091 ft | 412 kts | 232° |
| 2026-04-17 01:25 | 48.04077 | 148.29557 | 36084 ft | 412 kts | 232° |
| 2026-04-17 01:26 | 47.99940 | 148.23646 | 36080 ft | 411 kts | 232° |
| 2026-04-17 01:26 | 47.95799 | 148.17754 | 36077 ft | 411 kts | 232° |
| 2026-04-17 01:27 | 47.91662 | 148.11870 | 36077 ft | 411 kts | 232° |
| 2026-04-17 01:27 | 47.87531 | 148.05998 | 36074 ft | 410 kts | 232° |
| 2026-04-17 01:28 | 47.83399 | 148.00141 | 36073 ft | 410 kts | 232° |
| 2026-04-17 01:28 | 47.79238 | 147.94257 | 36071 ft | 410 kts | 232° |
| 2026-04-17 01:29 | 47.73033 | 147.85515 | 36066 ft | 409 kts | 232° |
| 2026-04-17 01:30 | 47.68899 | 147.79708 | 36065 ft | 409 kts | 232° |
| 2026-04-17 01:30 | 47.64758 | 147.73901 | 36070 ft | 409 kts | 232° |
| 2026-04-17 01:31 | 47.60620 | 147.68105 | 36063 ft | 409 kts | 232° |
| 2026-04-17 01:31 | 47.56468 | 147.62329 | 36064 ft | 409 kts | 232° |
| 2026-04-17 01:32 | 47.52327 | 147.56560 | 36055 ft | 409 kts | 232° |
| 2026-04-17 01:32 | 47.48189 | 147.50788 | 36058 ft | 409 kts | 232° |
| 2026-04-17 01:33 | 47.44041 | 147.45039 | 36059 ft | 409 kts | 232° |
| 2026-04-17 01:33 | 47.39886 | 147.39309 | 36059 ft | 409 kts | 232° |
| 2026-04-17 01:34 | 47.35729 | 147.33586 | 36061 ft | 409 kts | 232° |
| 2026-04-17 01:34 | 47.31573 | 147.27861 | 36059 ft | 409 kts | 232° |
| 2026-04-17 01:35 | 47.27419 | 147.22149 | 36055 ft | 409 kts | 232° |
| 2026-04-17 01:35 | 47.23251 | 147.16450 | 36055 ft | 409 kts | 232° |
| 2026-04-17 01:36 | 47.19059 | 147.10714 | 36055 ft | 409 kts | 232° |
| 2026-04-17 01:36 | 47.14897 | 147.05025 | 36054 ft | 409 kts | 232° |
| 2026-04-17 01:37 | 47.10735 | 146.99350 | 36058 ft | 409 kts | 232° |
| 2026-04-17 01:37 | 47.06563 | 146.93688 | 36060 ft | 409 kts | 232° |
| 2026-04-17 01:38 | 47.02382 | 146.88031 | 36059 ft | 409 kts | 232° |
| 2026-04-17 01:38 | 46.98202 | 146.82385 | 36060 ft | 409 kts | 232° |
| 2026-04-17 01:39 | 46.94025 | 146.76753 | 36061 ft | 408 kts | 232° |
| 2026-04-17 01:39 | 46.89847 | 146.71132 | 36064 ft | 408 kts | 232° |
| 2026-04-17 01:40 | 46.85659 | 146.65535 | 36064 ft | 407 kts | 232° |
| 2026-04-17 01:40 | 46.81476 | 146.59957 | 36071 ft | 407 kts | 232° |
| 2026-04-17 01:41 | 46.77300 | 146.54396 | 36064 ft | 406 kts | 232° |
| 2026-04-17 01:41 | 46.73125 | 146.48851 | 36064 ft | 406 kts | 232° |
| 2026-04-17 01:42 | 46.69629 | 146.44222 | 36059 ft | 405 kts | 232° |
| 2026-04-17 01:42 | 46.65460 | 146.38714 | 36058 ft | 404 kts | 232° |
| 2026-04-17 01:43 | 46.61297 | 146.33219 | 36058 ft | 404 kts | 232° |
| 2026-04-17 01:43 | 46.57136 | 146.27731 | 36058 ft | 403 kts | 232° |
| 2026-04-17 01:44 | 46.52982 | 146.22258 | 36068 ft | 403 kts | 232° |
| 2026-04-17 01:44 | 46.48822 | 146.16799 | 36058 ft | 403 kts | 232° |
| 2026-04-17 01:45 | 46.44657 | 146.11358 | 36063 ft | 403 kts | 232° |
| 2026-04-17 01:45 | 46.40492 | 146.05919 | 36065 ft | 403 kts | 232° |
| 2026-04-17 01:46 | 46.36333 | 146.00493 | 36068 ft | 402 kts | 232° |
| 2026-04-17 01:46 | 46.32173 | 145.95077 | 36070 ft | 402 kts | 232° |
| 2026-04-17 01:47 | 46.28012 | 145.89667 | 36072 ft | 402 kts | 232° |
| 2026-04-17 01:47 | 46.23814 | 145.84243 | 36073 ft | 402 kts | 232° |
| 2026-04-17 01:48 | 46.19674 | 145.78898 | 36069 ft | 402 kts | 232° |
| 2026-04-17 01:48 | 46.15485 | 145.73495 | 36068 ft | 401 kts | 232° |
| 2026-04-17 01:49 | 46.11313 | 145.68147 | 36064 ft | 401 kts | 232° |
| 2026-04-17 01:49 | 46.07146 | 145.62806 | 36064 ft | 401 kts | 232° |
| 2026-04-17 01:50 | 46.02990 | 145.57468 | 36063 ft | 400 kts | 232° |
| 2026-04-17 01:50 | 45.98830 | 145.52136 | 36058 ft | 401 kts | 232° |
| 2026-04-17 01:51 | 45.94659 | 145.46818 | 36061 ft | 401 kts | 232° |
| 2026-04-17 01:51 | 45.90480 | 145.41518 | 36072 ft | 401 kts | 232° |
| 2026-04-17 01:52 | 45.86292 | 145.36219 | 36072 ft | 401 kts | 232° |
| 2026-04-17 01:52 | 45.82105 | 145.30930 | 36073 ft | 401 kts | 232° |
| 2026-04-17 01:53 | 45.77920 | 145.25647 | 36080 ft | 401 kts | 232° |
| 2026-04-17 01:53 | 45.73731 | 145.20366 | 36079 ft | 401 kts | 232° |
| 2026-04-17 01:54 | 45.69544 | 145.15096 | 36083 ft | 401 kts | 232° |
| 2026-04-17 01:54 | 45.65352 | 145.09838 | 36087 ft | 401 kts | 232° |
| 2026-04-17 01:55 | 45.61129 | 145.04558 | 36084 ft | 401 kts | 232° |
| 2026-04-17 01:55 | 45.56931 | 144.99328 | 36082 ft | 400 kts | 232° |
| 2026-04-17 01:56 | 45.52747 | 144.94096 | 36079 ft | 400 kts | 232° |
| 2026-04-17 01:56 | 45.48554 | 144.88880 | 36082 ft | 400 kts | 232° |
| 2026-04-17 01:57 | 45.44361 | 144.83677 | 36083 ft | 400 kts | 232° |
| 2026-04-17 01:57 | 45.40168 | 144.78485 | 36085 ft | 399 kts | 232° |
| 2026-04-17 01:58 | 45.35975 | 144.73300 | 36086 ft | 399 kts | 232° |
| 2026-04-17 01:58 | 45.31783 | 144.68130 | 36093 ft | 399 kts | 232° |
| 2026-04-17 01:59 | 45.27591 | 144.62969 | 36093 ft | 399 kts | 232° |
| 2026-04-17 01:59 | 45.23407 | 144.57820 | 36096 ft | 398 kts | 232° |
| 2026-04-17 02:00 | 45.19217 | 144.52687 | 36096 ft | 398 kts | 232° |
| 2026-04-17 02:00 | 45.15021 | 144.47567 | 36099 ft | 397 kts | 232° |
| 2026-04-17 02:01 | 45.10839 | 144.42460 | 36091 ft | 397 kts | 232° |
| 2026-04-17 02:01 | 45.06656 | 144.37360 | 36090 ft | 397 kts | 232° |
| 2026-04-17 02:02 | 45.02474 | 144.32271 | 36108 ft | 396 kts | 232° |
| 2026-04-17 02:02 | 44.98268 | 144.27151 | 36091 ft | 395 kts | 233° |
| 2026-04-17 02:03 | 44.94235 | 144.21928 | 36087 ft | 392 kts | 234° |
| 2026-04-17 02:03 | 44.90277 | 144.16630 | 36101 ft | 392 kts | 234° |
| 2026-04-17 02:04 | 44.86301 | 144.11365 | 36088 ft | 392 kts | 234° |
| 2026-04-17 02:04 | 44.82299 | 144.06144 | 36088 ft | 392 kts | 233° |
| 2026-04-17 02:05 | 44.78291 | 144.00941 | 36094 ft | 392 kts | 233° |
| 2026-04-17 02:05 | 44.74291 | 143.95746 | 36095 ft | 391 kts | 234° |
| 2026-04-17 02:06 | 44.70293 | 143.90550 | 36095 ft | 391 kts | 233° |
| 2026-04-17 02:06 | 44.66292 | 143.85373 | 36096 ft | 390 kts | 233° |
| 2026-04-17 02:07 | 44.62301 | 143.80214 | 36096 ft | 390 kts | 233° |
| 2026-04-17 02:07 | 44.58302 | 143.75063 | 36098 ft | 390 kts | 233° |
| 2026-04-17 02:08 | 44.54311 | 143.69931 | 36087 ft | 389 kts | 233° |
| 2026-04-17 02:08 | 44.50319 | 143.64798 | 36074 ft | 389 kts | 233° |
| 2026-04-17 02:09 | 44.46337 | 143.59673 | 36059 ft | 389 kts | 233° |
| 2026-04-17 02:09 | 44.42342 | 143.54556 | 36055 ft | 389 kts | 233° |
| 2026-04-17 02:10 | 44.38312 | 143.49422 | 36044 ft | 389 kts | 233° |
| 2026-04-17 02:10 | 44.34303 | 143.44324 | 36050 ft | 389 kts | 233° |
| 2026-04-17 02:11 | 44.30309 | 143.39221 | 36045 ft | 388 kts | 234° |
| 2026-04-17 02:11 | 44.26547 | 143.33894 | 36049 ft | 383 kts | 237° |
| 2026-04-17 02:12 | 44.22954 | 143.28425 | 36052 ft | 382 kts | 238° |
| 2026-04-17 02:12 | 44.19350 | 143.22974 | 36056 ft | 382 kts | 237° |
| 2026-04-17 02:13 | 44.15707 | 143.17575 | 36061 ft | 382 kts | 237° |
| 2026-04-17 02:13 | 44.12665 | 143.13108 | 36064 ft | 382 kts | 237° |
| 2026-04-17 02:14 | 44.08392 | 143.06847 | 36069 ft | 382 kts | 237° |
| 2026-04-17 02:14 | 44.04744 | 143.01493 | 36070 ft | 381 kts | 237° |
| 2026-04-17 02:15 | 44.01723 | 142.97050 | 36067 ft | 380 kts | 237° |
| 2026-04-17 02:15 | 43.98077 | 142.91664 | 36070 ft | 379 kts | 237° |
| 2026-04-17 02:16 | 43.93888 | 142.85467 | 36062 ft | 379 kts | 237° |
| 2026-04-17 02:16 | 43.90276 | 142.80138 | 36067 ft | 379 kts | 237° |
| 2026-04-17 02:17 | 43.87247 | 142.75677 | 36067 ft | 380 kts | 237° |
| 2026-04-17 02:17 | 43.83624 | 142.70358 | 36070 ft | 380 kts | 236° |
| 2026-04-17 02:18 | 43.79994 | 142.65040 | 36083 ft | 380 kts | 236° |
| 2026-04-17 02:18 | 43.76354 | 142.59721 | 36082 ft | 380 kts | 236° |
| 2026-04-17 02:19 | 43.72708 | 142.54411 | 36088 ft | 381 kts | 236° |
| 2026-04-17 02:19 | 43.69056 | 142.49100 | 36088 ft | 381 kts | 236° |
| 2026-04-17 02:20 | 43.64981 | 142.44259 | 36090 ft | 399 kts | 221° |
| 2026-04-17 02:20 | 43.60156 | 142.40392 | 36082 ft | 401 kts | 221° |
| 2026-04-17 02:21 | 43.55323 | 142.36533 | 36087 ft | 401 kts | 221° |
| 2026-04-17 02:21 | 43.50493 | 142.32671 | 36088 ft | 401 kts | 221° |
| 2026-04-17 02:22 | 43.45625 | 142.28780 | 36098 ft | 402 kts | 221° |
| 2026-04-17 02:22 | 43.40798 | 142.24910 | 36142 ft | 401 kts | 221° |
| 2026-04-17 02:23 | 43.35982 | 142.21026 | 36146 ft | 401 kts | 221° |
| 2026-04-17 02:23 | 43.31168 | 142.17148 | 36147 ft | 401 kts | 221° |
| 2026-04-17 02:24 | 43.26355 | 142.13285 | 36147 ft | 401 kts | 221° |
| 2026-04-17 02:24 | 43.21535 | 142.09437 | 36138 ft | 400 kts | 221° |
| 2026-04-17 02:25 | 43.16726 | 142.05600 | 36146 ft | 400 kts | 221° |
| 2026-04-17 02:25 | 43.11925 | 142.01766 | 36153 ft | 400 kts | 221° |
| 2026-04-17 02:26 | 43.07123 | 141.97946 | 36157 ft | 399 kts | 221° |
| 2026-04-17 02:26 | 43.02329 | 141.94130 | 36171 ft | 399 kts | 221° |
| 2026-04-17 02:27 | 42.97529 | 141.90314 | 36175 ft | 399 kts | 221° |
| 2026-04-17 02:27 | 42.92728 | 141.86512 | 36180 ft | 399 kts | 221° |
| 2026-04-17 02:28 | 42.87930 | 141.82726 | 36182 ft | 399 kts | 221° |
| 2026-04-17 02:28 | 42.83124 | 141.78947 | 36180 ft | 398 kts | 221° |
| 2026-04-17 02:29 | 42.78329 | 141.75170 | 36185 ft | 398 kts | 221° |
| 2026-04-17 02:29 | 42.73530 | 141.71396 | 36190 ft | 398 kts | 221° |
| 2026-04-17 02:30 | 42.68730 | 141.67577 | 36190 ft | 395 kts | 223° |
| 2026-04-17 02:30 | 42.64219 | 141.63438 | 36189 ft | 390 kts | 226° |
| 2026-04-17 02:31 | 42.59821 | 141.59156 | 36196 ft | 389 kts | 226° |
| 2026-04-17 02:31 | 42.55397 | 141.54927 | 36191 ft | 389 kts | 225° |
| 2026-04-17 02:32 | 42.50943 | 141.50765 | 36197 ft | 389 kts | 225° |
| 2026-04-17 02:32 | 42.46474 | 141.46630 | 36189 ft | 388 kts | 225° |
| 2026-04-17 02:33 | 42.42016 | 141.42505 | 36186 ft | 388 kts | 225° |
| 2026-04-17 02:33 | 42.37569 | 141.38383 | 36180 ft | 387 kts | 225° |
| 2026-04-17 02:34 | 42.33130 | 141.34266 | 36174 ft | 387 kts | 225° |
| 2026-04-17 02:34 | 42.28688 | 141.30150 | 36172 ft | 387 kts | 225° |
| 2026-04-17 02:35 | 42.24243 | 141.26045 | 36167 ft | 387 kts | 225° |
| 2026-04-17 02:35 | 42.17563 | 141.19895 | 36166 ft | 388 kts | 225° |
| 2026-04-17 02:36 | 42.13108 | 141.15796 | 36161 ft | 388 kts | 225° |
| 2026-04-17 02:36 | 42.08655 | 141.11703 | 36159 ft | 388 kts | 225° |
| 2026-04-17 02:37 | 42.04189 | 141.07611 | 36160 ft | 388 kts | 224° |
| 2026-04-17 02:37 | 41.99689 | 141.03494 | 36160 ft | 389 kts | 224° |
| 2026-04-17 02:38 | 41.95218 | 140.99416 | 36158 ft | 389 kts | 224° |
| 2026-04-17 02:38 | 41.90736 | 140.95340 | 36161 ft | 389 kts | 224° |
| 2026-04-17 02:39 | 41.86245 | 140.91259 | 36166 ft | 390 kts | 224° |
| 2026-04-17 02:39 | 41.81763 | 140.87183 | 36166 ft | 389 kts | 224° |
| 2026-04-17 02:40 | 41.77248 | 140.83141 | 36169 ft | 394 kts | 220° |
| 2026-04-17 02:40 | 41.72345 | 140.79696 | 36170 ft | 399 kts | 218° |
| 2026-04-17 02:41 | 41.67421 | 140.76282 | 36168 ft | 399 kts | 218° |
| 2026-04-17 02:41 | 41.62489 | 140.72871 | 36169 ft | 399 kts | 218° |
| 2026-04-17 02:42 | 41.57555 | 140.69461 | 36167 ft | 399 kts | 218° |
| 2026-04-17 02:42 | 41.52622 | 140.66056 | 36166 ft | 399 kts | 218° |
| 2026-04-17 02:43 | 41.47689 | 140.62659 | 36161 ft | 399 kts | 218° |
| 2026-04-17 02:43 | 41.42749 | 140.59269 | 36150 ft | 399 kts | 218° |
| 2026-04-17 02:44 | 41.37811 | 140.55875 | 36145 ft | 399 kts | 218° |
| 2026-04-17 02:44 | 41.32871 | 140.52482 | 36146 ft | 399 kts | 218° |
| 2026-04-17 02:45 | 41.27927 | 140.49102 | 36151 ft | 399 kts | 217° |
| 2026-04-17 02:45 | 41.23784 | 140.46278 | 36150 ft | 399 kts | 217° |
| 2026-04-17 02:46 | 41.18010 | 140.42334 | 36147 ft | 399 kts | 217° |
| 2026-04-17 02:46 | 41.13073 | 140.38965 | 36146 ft | 399 kts | 217° |
| 2026-04-17 02:47 | 41.08127 | 140.35608 | 36143 ft | 399 kts | 217° |
| 2026-04-17 02:47 | 41.04022 | 140.32819 | 36141 ft | 399 kts | 217° |
| 2026-04-17 02:48 | 40.99085 | 140.29477 | 36140 ft | 398 kts | 217° |
| 2026-04-17 02:48 | 40.94151 | 140.26143 | 36136 ft | 398 kts | 217° |
| 2026-04-17 02:49 | 40.89220 | 140.22817 | 36138 ft | 398 kts | 217° |
| 2026-04-17 02:49 | 40.84294 | 140.19496 | 36140 ft | 397 kts | 217° |
| 2026-04-17 02:50 | 40.79369 | 140.16191 | 36144 ft | 397 kts | 217° |
| 2026-04-17 02:50 | 40.74417 | 140.12873 | 36151 ft | 396 kts | 218° |
| 2026-04-17 02:51 | 40.69514 | 140.09577 | 36159 ft | 395 kts | 218° |
| 2026-04-17 02:51 | 40.64626 | 140.06295 | 36168 ft | 394 kts | 218° |
| 2026-04-17 02:52 | 40.59751 | 140.03024 | 36148 ft | 393 kts | 218° |
| 2026-04-17 02:52 | 40.54860 | 139.99761 | 36146 ft | 394 kts | 218° |
| 2026-04-17 02:53 | 40.49976 | 139.96511 | 36144 ft | 394 kts | 218° |
| 2026-04-17 02:53 | 40.45085 | 139.93270 | 36139 ft | 393 kts | 218° |
| 2026-04-17 02:54 | 40.40212 | 139.90007 | 36138 ft | 393 kts | 218° |
| 2026-04-17 02:54 | 40.35356 | 139.86716 | 36136 ft | 393 kts | 218° |
| 2026-04-17 02:55 | 40.30499 | 139.83438 | 36133 ft | 393 kts | 218° |
| 2026-04-17 02:55 | 40.25641 | 139.80168 | 36133 ft | 392 kts | 218° |
| 2026-04-17 02:56 | 40.20780 | 139.76912 | 36134 ft | 393 kts | 218° |
| 2026-04-17 02:56 | 40.15913 | 139.73662 | 36137 ft | 393 kts | 218° |
| 2026-04-17 02:57 | 40.11050 | 139.70407 | 36141 ft | 393 kts | 218° |
| 2026-04-17 02:57 | 40.06182 | 139.67154 | 36145 ft | 393 kts | 218° |
| 2026-04-17 02:58 | 40.01420 | 139.63762 | 36065 ft | 375 kts | 233° |
| 2026-04-17 02:58 | 39.99688 | 139.61265 | 33773 ft | 383 kts | 244° |
| 2026-04-17 02:58 | 39.99166 | 139.57697 | 31431 ft | 411 kts | 278° |
| 2026-04-17 02:59 | 39.99355 | 139.54377 | 33446 ft | 330 kts | 264° |
| 2026-04-17 02:59 | 39.98704 | 139.51745 | 35764 ft | 287 kts | 246° |
| 2026-04-17 02:59 | 39.97425 | 139.49939 | 37588 ft | 263 kts | 226° |